Time;durP1;ratioP1;P1;durP2;ratioP2;P2;SDS_P1;SDS_P2;PMS_P1;PMS_P2;Temp;Humidity;BMP_temperature;BMP_pressure;BME280_temperature;BME280_humidity;BME280_pressure;Samples;Min_cycle;Max_cycle;Signal;HPM_P1;HPM_P2
2023/08/15 00:00:16;;;;;;;7.85;3.40;;;;;;;21.22;73.55;101064.03;2084289;28;20099;-76
2023/08/15 00:01:19;;;;;;;8.55;3.33;;;;;;;21.20;73.48;101061.63;2084355;28;20192;-76
2023/08/15 00:02:25;;;;;;;5.20;3.28;;;;;;;21.18;73.36;101066.63;2092159;28;20828;-76
2023/08/15 00:03:26;;;;;;;4.60;2.92;;;;;;;21.18;73.54;101065.84;2108359;28;20112;-75
2023/08/15 00:04:36;;;;;;;4.38;3.10;;;;;;;21.17;73.67;101069.72;2108498;28;21023;-75
2023/08/15 00:05:40;;;;;;;6.47;3.45;;;;;;;21.15;73.83;101063.78;2090913;28;20761;-75
2023/08/15 00:06:42;;;;;;;4.10;2.97;;;;;;;21.14;73.73;101064.94;2075363;28;20966;-76
2023/08/15 00:07:46;;;;;;;7.35;3.38;;;;;;;21.14;73.83;101062.19;2074037;28;20034;-74
2023/08/15 00:08:54;;;;;;;8.70;3.25;;;;;;;21.12;73.63;101062.50;2074566;28;20037;-74
2023/08/15 00:09:56;;;;;;;5.72;3.15;;;;;;;21.13;73.75;101068.81;2091481;28;20034;-74
2023/08/15 00:10:57;;;;;;;8.98;3.30;;;;;;;21.12;73.69;101067.19;2090756;28;20147;-74
2023/08/15 00:12:01;;;;;;;8.27;3.50;;;;;;;21.11;73.91;101060.94;2082306;28;20845;-74
2023/08/15 00:13:04;;;;;;;7.63;3.45;;;;;;;21.10;73.71;101070.28;2100146;28;20029;-74
2023/08/15 00:14:07;;;;;;;7.22;3.20;;;;;;;21.08;73.90;101058.88;2107735;28;20020;-74
2023/08/15 00:15:10;;;;;;;9.98;3.38;;;;;;;21.09;73.74;101065.13;2096957;28;20021;-74
2023/08/15 00:16:14;;;;;;;4.80;2.92;;;;;;;21.08;74.08;101060.81;2091551;28;20037;-74
2023/08/15 00:17:19;;;;;;;6.82;3.58;;;;;;;21.08;74.04;101058.06;2091037;28;20897;-74
2023/08/15 00:18:21;;;;;;;5.43;3.45;;;;;;;21.09;74.19;101062.41;2082430;28;20094;-74
2023/08/15 00:19:25;;;;;;;8.35;3.33;;;;;;;21.06;74.04;101070.16;2083041;28;20034;-74
2023/08/15 00:20:26;;;;;;;10.32;3.53;;;;;;;21.08;74.15;101063.53;2090788;28;20033;-74
2023/08/15 00:21:28;;;;;;;6.57;3.40;;;;;;;21.09;74.17;101073.31;2082755;28;20065;-74
2023/08/15 00:22:30;;;;;;;10.98;3.60;;;;;;;21.09;74.30;101076.06;2090975;28;20829;-74
2023/08/15 00:23:35;;;;;;;7.70;3.42;;;;;;;21.08;74.20;101067.06;2082187;28;20152;-75
2023/08/15 00:24:42;;;;;;;8.10;4.25;;;;;;;21.09;74.30;101062.41;2084431;28;20136;-75
2023/08/15 00:25:44;;;;;;;6.75;3.75;;;;;;;21.08;74.39;101064.34;2091059;28;20025;-75
2023/08/15 00:26:46;;;;;;;8.15;3.65;;;;;;;21.07;74.39;101068.22;2082739;28;20149;-75
2023/08/15 00:27:49;;;;;;;6.18;3.28;;;;;;;21.09;74.34;101062.41;2090997;28;20037;-75
2023/08/15 00:28:53;;;;;;;6.25;3.58;;;;;;;21.08;74.50;101067.06;2090645;28;20026;-75
2023/08/15 00:29:57;;;;;;;5.75;3.53;;;;;;;21.09;74.50;101062.41;2091502;28;20040;-75
2023/08/15 00:31:00;;;;;;;3.40;3.00;;;;;;;21.09;74.53;101062.41;2082395;28;20038;-74
2023/08/15 00:32:07;;;;;;;12.98;3.85;;;;;;;21.09;74.55;101056.91;2083426;28;20960;-75
2023/08/15 00:33:10;;;;;;;7.72;4.00;;;;;;;21.08;74.45;101064.34;2083215;28;20068;-75
2023/08/15 00:34:16;;;;;;;6.80;3.55;;;;;;;21.08;74.48;101061.59;2082798;28;20030;-76
2023/08/15 00:35:19;;;;;;;6.60;3.50;;;;;;;21.06;74.33;101061.94;2091978;28;20033;-75
2023/08/15 00:36:23;;;;;;;5.30;3.38;;;;;;;21.09;74.32;101067.84;2090873;28;20037;-76
2023/08/15 00:37:27;;;;;;;8.13;3.65;;;;;;;21.10;74.42;101061.28;2074699;28;20026;-76
2023/08/15 00:38:32;;;;;;;5.53;3.28;;;;;;;21.10;74.48;101061.28;2076102;28;20030;-76
2023/08/15 00:39:33;;;;;;;4.72;3.40;;;;;;;21.09;74.52;101056.91;2082785;28;20041;-77
2023/08/15 00:40:39;;;;;;;6.95;4.00;;;;;;;21.09;74.45;101063.22;2091065;28;20073;-76
2023/08/15 00:41:41;;;;;;;6.18;3.80;;;;;;;21.10;74.41;101064.81;2090359;28;20030;-75
2023/08/15 00:42:42;;;;;;;7.70;3.50;;;;;;;21.10;74.32;101064.00;2074283;28;20066;-76
2023/08/15 00:43:44;;;;;;;6.93;3.70;;;;;;;21.11;74.46;101054.66;2074536;28;20026;-76
2023/08/15 00:44:49;;;;;;;5.93;3.70;;;;;;;21.11;74.47;101060.94;2090859;28;21050;-75
2023/08/15 00:45:54;;;;;;;8.02;3.70;;;;;;;21.13;74.40;101055.13;2090948;28;20046;-75
2023/08/15 00:46:58;;;;;;;12.13;3.65;;;;;;;21.13;74.57;101053.19;2091639;28;20845;-78
2023/08/15 00:48:00;;;;;;;8.98;3.70;;;;;;;21.14;74.39;101054.00;2090558;28;20033;-78
2023/08/15 00:49:02;;;;;;;8.40;3.80;;;;;;;21.14;74.33;101054.00;2087455;28;20152;-78
2023/08/15 00:50:09;;;;;;;7.72;3.67;;;;;;;21.14;74.40;101048.53;2073054;28;20169;-77
2023/08/15 00:51:11;;;;;;;4.85;3.42;;;;;;;21.15;74.20;101055.56;2074459;28;20026;-78
2023/08/15 00:52:16;;;;;;;7.00;3.83;;;;;;;21.15;74.16;101050.09;2082281;28;20884;-78
2023/08/15 00:53:19;;;;;;;9.77;3.50;;;;;;;21.14;74.09;101051.25;2083212;28;20157;-78
2023/08/15 00:54:21;;;;;;;5.20;3.42;;;;;;;21.17;74.32;101058.78;2082347;28;20037;-78
2023/08/15 00:55:24;;;;;;;6.72;3.55;;;;;;;21.17;74.34;101054.09;2074417;28;20862;-78
2023/08/15 00:56:26;;;;;;;8.68;3.58;;;;;;;21.20;74.27;101058.09;2066466;28;20043;-78
2023/08/15 00:57:27;;;;;;;9.00;4.25;;;;;;;21.19;74.42;101054.56;2066269;28;20027;-79
2023/08/15 00:58:30;;;;;;;9.32;3.50;;;;;;;21.17;74.10;101047.84;2074064;28;20885;-78
2023/08/15 00:59:33;;;;;;;7.57;3.60;;;;;;;21.18;74.30;101054.91;2073804;28;20031;-75
2023/08/15 01:00:36;;;;;;;5.43;3.40;;;;;;;21.22;74.13;101055.84;2074928;28;20035;-78
2023/08/15 01:01:42;;;;;;;8.90;3.88;;;;;;;21.22;74.09;101045.69;2090979;28;20240;-78
2023/08/15 01:02:44;;;;;;;8.85;4.63;;;;;;;21.23;73.98;101051.97;2082159;28;20042;-75
2023/08/15 01:03:47;;;;;;;5.85;3.30;;;;;;;21.23;73.96;101057.44;2082562;28;20037;-75
2023/08/15 01:04:50;;;;;;;8.95;4.05;;;;;;;21.23;73.83;101046.50;2090215;28;20152;-77
2023/08/15 01:05:52;;;;;;;6.40;4.20;;;;;;;21.24;73.94;101051.59;2074274;28;20113;-78
2023/08/15 01:06:55;;;;;;;6.75;3.70;;;;;;;21.23;73.97;101050.03;2066384;28;20200;-78
2023/08/15 01:07:56;;;;;;;6.38;3.55;;;;;;;21.24;74.01;101048.09;2058232;28;20242;-78
2023/08/15 01:09:00;;;;;;;8.30;3.90;;;;;;;21.25;73.91;101050.50;2074899;28;20102;-78
2023/08/15 01:10:05;;;;;;;9.10;3.40;;;;;;;21.25;74.00;101047.75;2082349;28;20030;-78
2023/08/15 01:11:06;;;;;;;6.10;3.65;;;;;;;21.26;73.76;101049.34;2074455;28;20781;-78
2023/08/15 01:12:19;;;;;;;8.15;4.50;;;;;;;21.27;73.61;101047.41;2082544;28;20046;-78
2023/08/15 01:13:36;;;;;;;7.22;4.22;;;;;;;21.26;73.50;101046.59;2082458;28;20038;-77
2023/08/15 01:14:46;;;;;;;7.40;3.88;;;;;;;21.27;73.44;101042.72;2062607;28;20023;-80
2023/08/15 01:15:54;;;;;;;6.68;3.70;;;;;;;21.26;73.65;101045.81;2076713;28;20798;-80
2023/08/15 01:16:57;;;;;;;5.68;3.60;;;;;;;21.26;73.42;101048.56;2083049;28;20088;-80
2023/08/15 01:18:14;;;;;;;7.82;3.42;;;;;;;21.24;73.37;101048.09;2082635;28;20069;-80
2023/08/15 01:19:27;;;;;;;8.20;3.92;;;;;;;21.24;73.28;101048.09;2084356;28;20788;-80
2023/08/15 01:20:33;;;;;;;7.60;4.03;;;;;;;21.23;73.25;101043.75;2085656;28;20782;-79
2023/08/15 01:21:42;;;;;;;7.13;3.90;;;;;;;21.25;73.23;101041.50;2091247;28;20053;-79
2023/08/15 01:22:46;;;;;;;5.97;3.78;;;;;;;21.26;73.36;101040.34;2091662;28;20085;-80
2023/08/15 01:23:49;;;;;;;7.00;3.75;;;;;;;21.25;73.39;101036.03;2091064;28;20860;-79
2023/08/15 01:24:51;;;;;;;5.75;3.60;;;;;;;21.27;73.45;101041.94;2082498;28;20034;-80
2023/08/15 01:25:58;;;;;;;11.70;3.88;;;;;;;21.27;73.32;101039.19;2083366;28;20056;-80
2023/08/15 01:27:05;;;;;;;4.25;3.30;;;;;;;21.26;73.19;101034.88;2083753;28;20087;-81
2023/08/15 01:28:14;;;;;;;20.90;4.72;;;;;;;21.25;73.18;101038.75;2088316;28;20938;-83
2023/08/15 01:29:17;;;;;;;4.78;3.40;;;;;;;21.23;73.08;101035.56;2087427;28;20149;-83
2023/08/15 01:30:23;;;;;;;11.45;3.90;;;;;;;21.25;73.25;101042.28;2082944;28;20148;-84
2023/08/15 01:31:41;;;;;;;5.85;3.67;;;;;;;21.25;73.02;101046.97;2083574;28;20038;-76
2023/08/15 01:32:50;;;;;;;8.02;3.47;;;;;;;21.23;72.75;101036.34;2095243;28;20072;-78
2023/08/15 01:33:54;;;;;;;6.65;3.78;;;;;;;21.25;72.65;101041.50;2083031;28;20037;-78
2023/08/15 01:35:06;;;;;;;6.10;3.78;;;;;;;21.25;72.80;101033.28;2066681;28;20878;-79
2023/08/15 01:36:22;;;;;;;7.70;3.80;;;;;;;21.24;72.76;101031.66;2085497;28;20061;-78
2023/08/15 01:37:27;;;;;;;5.38;3.45;;;;;;;21.27;72.60;101033.72;2091566;28;20112;-78
2023/08/15 01:38:50;;;;;;;5.65;3.75;;;;;;;21.26;72.64;101024.72;2099623;28;20013;-77
2023/08/15 01:39:56;;;;;;;6.35;3.90;;;;;;;21.30;72.48;101030.31;2093632;28;20086;-76
2023/08/15 01:41:01;;;;;;;6.50;3.70;;;;;;;21.31;72.43;101037.38;2074411;28;20042;-76
2023/08/15 01:42:04;;;;;;;13.98;3.95;;;;;;;21.32;72.49;101035.47;2075288;28;20896;-76
2023/08/15 01:43:09;;;;;;;8.27;4.00;;;;;;;21.31;72.24;101029.16;2082594;28;20026;-76
2023/08/15 01:44:13;;;;;;;5.75;3.78;;;;;;;21.32;72.16;101028.06;2091152;28;20052;-76
2023/08/15 01:45:15;;;;;;;6.18;3.40;;;;;;;21.32;72.43;101036.25;2090587;28;20052;-77
2023/08/15 01:46:19;;;;;;;7.28;3.90;;;;;;;21.34;72.28;101031.22;2082296;28;20025;-76
2023/08/15 01:47:27;;;;;;;5.38;3.90;;;;;;;21.35;72.13;101030.13;2092229;28;20068;-76
2023/08/15 01:48:31;;;;;;;9.50;3.78;;;;;;;21.37;72.06;101035.25;2098675;28;20922;-76
2023/08/15 01:49:33;;;;;;;10.52;3.90;;;;;;;21.37;71.94;101029.78;2070835;28;20138;-76
2023/08/15 01:50:35;;;;;;;4.97;3.70;;;;;;;21.37;71.90;101030.56;2083927;28;20034;-76
2023/08/15 01:51:39;;;;;;;8.13;3.72;;;;;;;21.37;71.79;101030.56;2090287;28;20033;-76
2023/08/15 01:52:42;;;;;;;5.85;3.70;;;;;;;21.39;71.89;101031.03;2074812;28;20114;-76
2023/08/15 01:53:45;;;;;;;6.57;3.88;;;;;;;21.39;71.74;101024.78;2082282;28;20034;-76
2023/08/15 01:54:47;;;;;;;5.13;3.78;;;;;;;21.40;71.70;101032.63;2082108;28;20030;-76
2023/08/15 01:55:49;;;;;;;7.68;3.90;;;;;;;21.41;71.50;101033.47;2073896;28;20989;-76
2023/08/15 01:56:51;;;;;;;5.40;3.67;;;;;;;21.41;71.41;101031.50;2074093;28;20030;-76
2023/08/15 01:57:54;;;;;;;5.95;3.95;;;;;;;21.42;71.44;101035.03;2074360;28;20137;-76
2023/08/15 01:58:56;;;;;;;5.82;3.47;;;;;;;21.41;71.42;101031.50;2082179;28;21077;-76
2023/08/15 01:59:58;;;;;;;7.32;3.95;;;;;;;21.43;71.38;101034.69;2090396;28;20080;-76
2023/08/15 02:01:03;;;;;;;8.07;3.50;;;;;;;21.43;71.21;101034.69;2089731;28;20033;-76
2023/08/15 02:02:06;;;;;;;7.95;3.72;;;;;;;21.45;71.32;101032.41;2082703;28;20108;-77
2023/08/15 02:03:11;;;;;;;4.85;3.65;;;;;;;21.44;70.93;101035.50;2090662;28;20750;-76
2023/08/15 02:04:19;;;;;;;6.65;3.65;;;;;;;21.47;70.99;101023.88;2091882;28;20034;-76
2023/08/15 02:05:21;;;;;;;6.45;3.72;;;;;;;21.47;70.99;101027.41;2089806;28;20026;-76
2023/08/15 02:06:24;;;;;;;4.20;3.22;;;;;;;21.49;70.86;101033.31;2090624;28;20124;-75
2023/08/15 02:07:27;;;;;;;5.25;3.70;;;;;;;21.50;70.74;101024.00;2089868;28;20033;-78
2023/08/15 02:08:29;;;;;;;6.40;3.45;;;;;;;21.50;70.87;101026.75;2074274;28;20074;-77
2023/08/15 02:09:37;;;;;;;7.25;3.50;;;;;;;21.51;70.70;101025.59;2075605;28;20046;-76
2023/08/15 02:10:39;;;;;;;8.95;3.85;;;;;;;21.52;70.69;101021.69;2073715;28;20110;-76
2023/08/15 02:11:42;;;;;;;6.38;3.53;;;;;;;21.53;70.77;101022.50;2074663;28;20038;-77
2023/08/15 02:12:44;;;;;;;5.15;3.70;;;;;;;21.54;70.62;101023.31;2082317;28;20812;-76
2023/08/15 02:13:47;;;;;;;5.10;3.38;;;;;;;21.55;70.35;101028.44;2073696;28;20149;-76
2023/08/15 02:14:49;;;;;;;5.03;3.10;;;;;;;21.56;70.41;101032.75;2082532;28;20722;-76
2023/08/15 02:15:54;;;;;;;4.80;3.42;;;;;;;21.57;70.32;101028.91;2081372;28;20030;-76
2023/08/15 02:16:56;;;;;;;6.80;3.47;;;;;;;21.58;70.34;101032.44;2074740;28;20026;-77
2023/08/15 02:18:01;;;;;;;4.97;3.72;;;;;;;21.59;70.33;101034.81;2073575;28;20833;-76
2023/08/15 02:19:03;;;;;;;10.48;3.78;;;;;;;21.58;70.53;101024.22;2082970;28;20033;-77
2023/08/15 02:20:08;;;;;;;6.72;3.60;;;;;;;21.59;70.28;101029.34;2098550;28;20132;-76
2023/08/15 02:21:13;;;;;;;4.90;3.40;;;;;;;21.61;70.04;101035.28;2089465;28;20083;-76
2023/08/15 02:22:17;;;;;;;7.35;3.50;;;;;;;21.63;70.10;101032.22;2081722;28;20045;-79
2023/08/15 02:23:22;;;;;;;5.00;3.40;;;;;;;21.63;69.99;101032.22;2074582;28;20034;-74
2023/08/15 02:24:24;;;;;;;5.47;3.63;;;;;;;21.64;69.97;101033.81;2082225;28;20110;-74
2023/08/15 02:25:28;;;;;;;4.90;3.30;;;;;;;21.65;69.96;101040.88;2090073;28;20880;-74
2023/08/15 02:26:30;;;;;;;3.85;3.42;;;;;;;21.65;70.10;101036.19;2073608;28;20862;-75
2023/08/15 02:27:31;;;;;;;7.47;3.58;;;;;;;21.65;70.20;101041.66;2065689;28;20030;-74
2023/08/15 02:28:33;;;;;;;5.32;3.33;;;;;;;21.66;70.00;101037.00;2089935;28;20853;-74
2023/08/15 02:29:36;;;;;;;4.38;3.50;;;;;;;21.69;69.91;101048.06;2089773;28;20781;-74
2023/08/15 02:30:38;;;;;;;6.50;3.50;;;;;;;21.70;69.97;101043.38;2098802;28;20887;-74
2023/08/15 02:31:43;;;;;;;7.35;3.70;;;;;;;21.71;69.98;101044.97;2089856;28;20033;-74
2023/08/15 02:32:47;;;;;;;6.57;3.42;;;;;;;21.73;69.98;101048.19;2083654;28;20033;-75
2023/08/15 02:33:51;;;;;;;5.30;3.70;;;;;;;21.74;69.91;101042.34;2081864;28;20030;-75
2023/08/15 02:34:55;;;;;;;5.10;3.72;;;;;;;21.77;69.79;101051.03;2083738;28;20041;-75
2023/08/15 02:36:05;;;;;;;8.82;3.90;;;;;;;21.79;69.80;101046.03;2106521;28;20125;-75
2023/08/15 02:37:07;;;;;;;5.68;3.83;;;;;;;21.78;69.72;101053.41;2107989;28;20031;-75
2023/08/15 02:38:11;;;;;;;4.90;3.72;;;;;;;21.80;69.77;101048.41;2106609;28;20143;-75
2023/08/15 02:39:16;;;;;;;6.03;3.47;;;;;;;21.78;69.94;101061.63;2090068;28;20030;-74
2023/08/15 02:40:17;;;;;;;3.90;3.17;;;;;;;21.79;69.80;101057.75;2087381;28;20139;-75
2023/08/15 02:41:34;;;;;;;7.18;3.53;;;;;;;21.81;69.94;101060.13;2106444;28;20021;-75
2023/08/15 02:42:36;;;;;;;4.18;3.20;;;;;;;21.81;70.01;101060.13;2105192;28;20032;-76
2023/08/15 02:43:41;;;;;;;5.78;3.80;;;;;;;21.81;70.15;101049.97;2096844;28;20079;-76
2023/08/15 02:44:43;;;;;;;4.32;3.40;;;;;;;21.83;70.21;101050.44;2080872;28;20034;-76
2023/08/15 02:45:47;;;;;;;7.57;3.38;;;;;;;21.86;70.37;101057.19;2073279;28;20044;-75
2023/08/15 02:46:49;;;;;;;6.65;3.45;;;;;;;21.85;70.21;101053.66;2096828;28;20203;-75
2023/08/15 02:47:51;;;;;;;6.30;3.60;;;;;;;21.85;70.24;101050.91;2096751;28;20064;-74
2023/08/15 02:48:53;;;;;;;7.05;3.70;;;;;;;21.85;70.13;101056.38;2096049;28;20040;-74
2023/08/15 02:49:55;;;;;;;8.00;3.90;;;;;;;21.83;70.07;101061.41;2088331;28;20026;-74
2023/08/15 02:50:59;;;;;;;4.68;3.65;;;;;;;21.83;70.05;101061.41;2093579;28;20025;-74
2023/08/15 02:52:01;;;;;;;4.50;3.58;;;;;;;21.81;69.91;101060.13;2072231;28;20038;-74
2023/08/15 02:53:02;;;;;;;7.22;3.92;;;;;;;21.79;69.93;101057.75;2071977;28;20093;-76
2023/08/15 02:54:07;;;;;;;6.43;3.92;;;;;;;21.80;70.01;101064.81;2080633;28;20928;-75
2023/08/15 02:55:10;;;;;;;7.03;4.07;;;;;;;21.81;70.04;101060.13;2064306;28;20134;-75
2023/08/15 02:56:12;;;;;;;5.75;3.60;;;;;;;21.80;70.24;101051.13;2064952;28;21103;-75
2023/08/15 02:57:14;;;;;;;4.57;3.75;;;;;;;21.81;70.23;101044.50;2080387;28;20100;-74
2023/08/15 02:58:18;;;;;;;5.82;3.83;;;;;;;21.82;70.45;101045.34;2088751;28;21085;-75
2023/08/15 02:59:22;;;;;;;4.68;3.67;;;;;;;21.82;70.36;101046.13;2089406;28;20048;-74
2023/08/15 03:00:26;;;;;;;5.68;3.88;;;;;;;21.83;70.42;101046.91;2072208;28;21014;-75
2023/08/15 03:01:28;;;;;;;8.07;4.28;;;;;;;21.83;70.38;101047.72;2073808;28;20029;-72
2023/08/15 03:02:29;;;;;;;7.80;3.97;;;;;;;21.83;70.28;101035.97;2081066;28;20161;-74
2023/08/15 03:03:32;;;;;;;4.75;3.30;;;;;;;21.83;70.31;101042.25;2080595;28;20046;-74
2023/08/15 03:04:38;;;;;;;5.97;3.65;;;;;;;21.83;70.24;101042.25;2089949;28;20034;-74
2023/08/15 03:05:43;;;;;;;5.57;3.40;;;;;;;21.83;70.00;101036.75;2081136;28;20022;-75
2023/08/15 03:06:44;;;;;;;6.22;3.60;;;;;;;21.82;70.00;101034.38;2082563;28;20855;-74
2023/08/15 03:07:49;;;;;;;5.50;3.30;;;;;;;21.83;69.58;101031.28;2097438;28;20044;-75
2023/08/15 03:08:53;;;;;;;5.50;3.72;;;;;;;21.82;69.56;101026.97;2098204;28;20025;-75
2023/08/15 03:09:55;;;;;;;8.77;3.50;;;;;;;21.83;69.36;101034.03;2090206;28;20037;-75
2023/08/15 03:10:58;;;;;;;5.28;3.63;;;;;;;21.86;69.30;101029.81;2089963;28;20025;-75
2023/08/15 03:11:59;;;;;;;6.28;3.70;;;;;;;21.84;69.11;101027.41;2089629;28;20041;-74
2023/08/15 03:13:03;;;;;;;5.72;3.50;;;;;;;21.82;69.19;101017.97;2081616;28;20045;-75
2023/08/15 03:14:10;;;;;;;5.20;3.40;;;;;;;21.85;69.22;101023.53;2074839;28;20046;-75
2023/08/15 03:15:12;;;;;;;7.78;3.50;;;;;;;21.85;68.97;101020.81;2088010;28;20030;-75
2023/08/15 03:16:16;;;;;;;4.88;3.50;;;;;;;21.83;68.77;101017.59;2073292;28;20034;-75
2023/08/15 03:17:21;;;;;;;4.65;3.35;;;;;;;21.81;68.44;101014.41;2074589;28;20057;-75
2023/08/15 03:18:23;;;;;;;4.45;3.13;;;;;;;21.81;68.39;101016.34;2073499;28;20845;-75
2023/08/15 03:19:25;;;;;;;8.13;3.30;;;;;;;21.82;68.02;101015.22;2065319;28;20116;-76
2023/08/15 03:20:30;;;;;;;3.53;2.95;;;;;;;21.81;68.07;101017.13;2074358;28;20038;-74
2023/08/15 03:21:34;;;;;;;9.48;3.85;;;;;;;21.81;67.72;101017.13;2081174;28;20037;-76
2023/08/15 03:22:38;;;;;;;3.72;3.20;;;;;;;21.80;67.40;101010.06;2073832;28;20026;-76
2023/08/15 03:23:40;;;;;;;5.22;3.20;;;;;;;21.82;66.93;101018.75;2081872;28;20026;-76
2023/08/15 03:24:43;;;;;;;6.13;3.33;;;;;;;21.81;66.86;101010.88;2089669;28;20136;-75
2023/08/15 03:25:55;;;;;;;3.58;2.90;;;;;;;21.80;66.78;101012.81;2073496;28;22066;-75
2023/08/15 03:26:59;;;;;;;4.82;3.13;;;;;;;21.82;66.85;101010.53;2077150;28;20097;-75
2023/08/15 03:28:01;;;;;;;5.47;3.05;;;;;;;21.85;66.98;101017.28;2077298;28;20030;-74
2023/08/15 03:29:03;;;;;;;4.57;3.20;;;;;;;21.84;67.11;101010.97;2073222;28;20042;-74
2023/08/15 03:30:08;;;;;;;6.88;3.63;;;;;;;21.86;67.06;101011.44;2081506;28;20029;-74
2023/08/15 03:31:11;;;;;;;4.82;3.50;;;;;;;21.87;67.03;101013.03;2082162;28;20203;-74
2023/08/15 03:32:20;;;;;;;4.38;3.40;;;;;;;21.89;67.13;101012.69;2084431;28;20025;-75
2023/08/15 03:33:22;;;;;;;4.28;3.10;;;;;;;21.89;67.12;101013.50;2082956;28;20038;-74
2023/08/15 03:34:26;;;;;;;4.63;3.67;;;;;;;21.92;67.04;101015.53;2092524;28;20136;-75
2023/08/15 03:35:28;;;;;;;7.55;3.20;;;;;;;21.93;67.09;101011.66;2090837;28;20065;-75
2023/08/15 03:36:33;;;;;;;6.68;3.20;;;;;;;21.96;67.04;101013.69;2075526;28;20031;-75
2023/08/15 03:37:35;;;;;;;5.78;3.33;;;;;;;21.97;67.13;101020.78;2082851;28;20041;-74
2023/08/15 03:38:37;;;;;;;5.50;3.47;;;;;;;21.94;67.30;101016.00;2091199;28;20018;-74
2023/08/15 03:39:39;;;;;;;6.70;3.67;;;;;;;21.91;67.28;101011.22;2090841;28;20034;-75
2023/08/15 03:40:40;;;;;;;5.72;3.50;;;;;;;21.90;67.88;101009.59;2082848;28;20056;-75
2023/08/15 03:41:42;;;;;;;5.55;3.60;;;;;;;21.91;67.96;101013.13;2074429;28;20045;-75
2023/08/15 03:42:45;;;;;;;5.70;3.83;;;;;;;21.87;68.21;101013.03;2090929;28;20876;-74
2023/08/15 03:43:49;;;;;;;7.93;3.80;;;;;;;21.87;68.37;101017.72;2083039;28;20038;-77
2023/08/15 03:44:53;;;;;;;7.82;3.80;;;;;;;21.88;68.40;101013.81;2083788;28;20865;-77
2023/08/15 03:45:56;;;;;;;9.50;4.93;;;;;;;21.87;68.60;101007.56;2066456;28;20138;-78
2023/08/15 03:47:00;;;;;;;5.07;3.40;;;;;;;21.91;68.28;101021.34;2068639;28;20026;-78
2023/08/15 03:48:04;;;;;;;6.47;3.25;;;;;;;21.90;68.09;101012.34;2083053;28;20033;-79
2023/08/15 03:49:09;;;;;;;9.32;3.65;;;;;;;21.92;67.61;101017.50;2079378;28;20041;-78
2023/08/15 03:50:11;;;;;;;3.88;3.15;;;;;;;21.93;67.35;101013.59;2090911;28;20041;-78
2023/08/15 03:51:12;;;;;;;6.40;3.67;;;;;;;21.90;66.72;101009.59;2089951;28;20029;-78
2023/08/15 03:52:16;;;;;;;6.82;3.67;;;;;;;21.88;66.26;101009.16;2083097;28;20061;-78
2023/08/15 03:53:18;;;;;;;9.07;4.00;;;;;;;21.90;66.40;101015.06;2091457;28;20028;-78
2023/08/15 03:54:20;;;;;;;6.30;3.42;;;;;;;21.90;66.32;101012.34;2082490;28;20865;-79
2023/08/15 03:55:21;;;;;;;4.93;3.35;;;;;;;21.89;66.15;101018.19;2074813;28;20144;-78
2023/08/15 03:56:26;;;;;;;3.90;3.15;;;;;;;21.91;66.00;101011.22;2082869;28;20846;-74
2023/08/15 03:57:28;;;;;;;7.63;3.42;;;;;;;21.91;65.83;101005.75;2074653;28;20743;-74
2023/08/15 03:58:33;;;;;;;6.35;3.47;;;;;;;21.94;65.61;101009.72;2075669;28;20122;-74
2023/08/15 03:59:35;;;;;;;7.82;3.45;;;;;;;21.95;65.62;101003.09;2066990;28;20094;-75
2023/08/15 04:00:40;;;;;;;8.50;3.65;;;;;;;21.97;65.74;101011.75;2051749;28;20158;-74
2023/08/15 04:01:42;;;;;;;4.60;3.42;;;;;;;21.97;65.72;101009.03;2058960;28;20151;-74
2023/08/15 04:02:46;;;;;;;7.00;3.30;;;;;;;21.98;65.79;101010.63;2075591;28;20038;-74
2023/08/15 04:03:51;;;;;;;4.85;3.50;;;;;;;21.98;65.62;100997.75;2074287;28;20030;-74
2023/08/15 04:04:55;;;;;;;4.75;3.40;;;;;;;22.01;65.79;101003.69;2059677;28;20098;-74
2023/08/15 04:05:57;;;;;;;5.40;3.55;;;;;;;22.01;65.79;101003.69;2083147;28;20779;-74
2023/08/15 04:07:00;;;;;;;4.68;3.47;;;;;;;22.02;65.75;101002.53;2074426;28;20031;-74
2023/08/15 04:08:02;;;;;;;8.30;3.65;;;;;;;22.03;65.66;101002.16;2074687;28;20118;-74
2023/08/15 04:09:05;;;;;;;5.43;3.50;;;;;;;22.04;65.52;100994.78;2082921;28;20083;-74
2023/08/15 04:10:07;;;;;;;5.45;3.47;;;;;;;22.08;65.47;100999.19;2082950;28;20192;-74
2023/08/15 04:11:09;;;;;;;6.40;3.50;;;;;;;22.08;65.35;100998.41;2082823;28;20893;-74
2023/08/15 04:12:10;;;;;;;5.95;3.50;;;;;;;22.10;65.34;101001.56;2066122;28;20039;-74
2023/08/15 04:13:13;;;;;;;7.95;3.67;;;;;;;22.12;65.36;100999.31;2066750;28;20030;-74
2023/08/15 04:14:18;;;;;;;5.13;3.22;;;;;;;22.13;65.48;101000.88;2090744;28;20037;-74
2023/08/15 04:15:24;;;;;;;6.57;3.38;;;;;;;22.16;65.47;101000.22;2082165;28;20042;-74
2023/08/15 04:16:35;;;;;;;5.30;3.40;;;;;;;22.19;65.60;100999.53;2075042;28;20049;-73
2023/08/15 04:17:37;;;;;;;7.07;3.70;;;;;;;22.22;65.24;101007.06;2077049;28;20049;-73
2023/08/15 04:18:39;;;;;;;4.35;3.25;;;;;;;22.24;65.21;101010.25;2091065;28;20036;-75
2023/08/15 04:19:46;;;;;;;4.68;3.40;;;;;;;22.26;65.28;101007.97;2091015;28;20042;-75
2023/08/15 04:20:53;;;;;;;8.73;3.72;;;;;;;22.30;65.33;101010.81;2066275;28;20081;-74
2023/08/15 04:22:03;;;;;;;6.70;3.30;;;;;;;22.32;65.18;101001.13;2069336;28;20874;-74
2023/08/15 04:23:06;;;;;;;7.22;3.70;;;;;;;22.35;65.59;101003.16;2083554;28;20073;-75
2023/08/15 04:24:13;;;;;;;13.02;3.85;;;;;;;22.30;65.65;100999.88;2075212;28;20245;-75
2023/08/15 04:25:15;;;;;;;8.75;3.88;;;;;;;22.26;65.82;100996.19;2067554;28;20847;-74
2023/08/15 04:26:17;;;;;;;5.63;3.78;;;;;;;22.24;65.89;101012.22;2066567;28;20050;-75
2023/08/15 04:27:22;;;;;;;4.07;3.58;;;;;;;22.21;66.24;101003.53;2066511;28;20022;-75
2023/08/15 04:28:25;;;;;;;7.03;3.50;;;;;;;22.22;66.33;101009.78;2082487;28;20034;-74
2023/08/15 04:29:31;;;;;;;5.47;3.92;;;;;;;22.20;66.30;101009.38;2074062;28;20073;-74
2023/08/15 04:30:33;;;;;;;6.63;4.43;;;;;;;22.19;66.41;101005.00;2084242;28;20781;-75
2023/08/15 04:31:37;;;;;;;8.98;4.20;;;;;;;22.20;66.91;101012.09;2082283;28;20025;-74
2023/08/15 04:32:42;;;;;;;8.90;4.50;;;;;;;22.14;67.28;101005.25;2075081;28;20157;-74
2023/08/15 04:33:44;;;;;;;6.03;4.07;;;;;;;22.12;67.52;101011.03;2082812;28;20114;-74
2023/08/15 04:34:46;;;;;;;5.80;4.60;;;;;;;22.10;67.74;101010.63;2074520;28;20046;-73
2023/08/15 04:35:50;;;;;;;7.43;4.53;;;;;;;22.11;67.96;101005.94;2074397;28;20026;-73
2023/08/15 04:36:55;;;;;;;9.27;4.45;;;;;;;22.15;68.06;101013.09;2067317;28;20030;-73
2023/08/15 04:37:56;;;;;;;6.32;4.65;;;;;;;22.22;68.03;101018.00;2074795;28;20893;-73
2023/08/15 04:38:57;;;;;;;7.70;4.60;;;;;;;22.24;67.89;101018.47;2082751;28;20026;-73
2023/08/15 04:39:59;;;;;;;13.68;4.60;;;;;;;22.30;68.00;101014.34;2090795;28;20881;-73
2023/08/15 04:41:01;;;;;;;10.25;4.43;;;;;;;22.36;67.92;101014.91;2090917;28;20021;-73
2023/08/15 04:42:03;;;;;;;6.25;4.20;;;;;;;22.37;67.84;101006.34;2073838;28;20034;-73
2023/08/15 04:43:07;;;;;;;7.75;4.32;;;;;;;22.47;67.80;101010.53;2074632;28;20157;-75
2023/08/15 04:44:08;;;;;;;8.25;4.10;;;;;;;22.51;67.68;101003.22;2073871;28;20129;-74
2023/08/15 04:45:10;;;;;;;8.25;4.38;;;;;;;22.57;67.43;101004.56;2074234;28;20038;-75
2023/08/15 04:46:14;;;;;;;7.65;4.35;;;;;;;22.63;67.36;100999.59;2058407;28;20040;-74
2023/08/15 04:47:18;;;;;;;7.78;4.30;;;;;;;22.64;67.23;101012.19;2083047;28;20045;-74
2023/08/15 04:48:20;;;;;;;6.70;4.53;;;;;;;22.67;67.30;101016.97;2090756;28;20017;-74
2023/08/15 04:49:22;;;;;;;7.20;4.30;;;;;;;22.72;67.11;101016.69;2081957;28;20023;-74
2023/08/15 04:50:24;;;;;;;5.90;4.35;;;;;;;22.72;66.93;101016.69;2073969;28;20022;-75
2023/08/15 04:51:25;;;;;;;7.05;4.50;;;;;;;22.78;67.05;101020.00;2074196;28;20038;-75
2023/08/15 04:52:30;;;;;;;6.25;4.47;;;;;;;22.81;66.87;101014.59;2082315;28;20034;-74
2023/08/15 04:53:34;;;;;;;7.20;4.20;;;;;;;22.89;66.82;101019.16;2074547;28;20042;-74
2023/08/15 04:54:39;;;;;;;5.32;4.13;;;;;;;22.92;66.29;101025.88;2067003;28;20106;-74
2023/08/15 04:55:41;;;;;;;12.82;5.65;;;;;;;22.94;65.91;101017.31;2066518;28;20149;-74
2023/08/15 04:56:45;;;;;;;6.97;4.28;;;;;;;22.99;65.81;101025.31;2066238;28;20165;-74